GLOO2: Glover Creek, Glover, OK

Data processed at Fri May 24 2019 23:50


All information presented herein is the property of the government of the United States of America and may be revised or deleted at any time without prior notice.
Dissemination of this information without the expressed written consent of the Public Affairs Office, Tulsa District U.S. Army Corps of Engineers is strictly prohibited.
These data are gathered electronically and, as presented, have not undergone any form of quality control. These data are not guaranteed to be valid or correct.
Go to home page.
Go to station list.
Go to home page.

Downstream station:


Previous Day
Next Day
Current Day
    
SHEF ID:       GLOO2     Glover River near Glover, OK
STATION TYPE:  
Regulating: Stage =    16.00, Flow =    24063

               PRECIP     STAGE  RIV-FLOW  BAT-LOAD
                   in        ft       cfs      volt
              Ccp-Rev   Ccp-Rev   Ccp-Rev   Ccp-Rev
(US/Central)
05/24 00:00      0.00      5.26       845     12.71
05/24 01:00      0.00      5.25       837     12.71
05/24 02:00      0.00      5.22       812     12.71
05/24 03:00      0.00      5.20       795     12.71
05/24 04:00      0.00      5.18       779     12.71
05/24 05:00      0.00      5.16       762     12.71
05/24 06:00      0.00      5.14       746     12.71
05/24 07:00      0.00      5.13       738     12.71
05/24 08:00      0.00      5.10       714     12.71
05/24 09:00      0.00      5.09       706     12.83
05/24 10:00      0.00      5.07       691     12.95
05/24 11:00      0.00      5.05       676     13.00
05/24 12:00      0.00      5.04       668     13.07
05/24 13:00      0.00      5.03       661     13.48
05/24 14:00      0.00      5.01       646     13.59
05/24 15:00      0.00      4.99       631     14.30
05/24 16:00      0.00      4.98       624     13.12
05/24 17:00      0.00      4.96       610     13.12
05/24 18:00      0.00      4.94       596     13.00
05/24 19:00      0.00      4.93       589     12.83
05/24 20:00      0.00      4.91       575     12.83
05/24 21:00      0.00      4.89       561     12.83
05/24 22:00      0.00      4.87       548     12.77
05/24 23:00      0.00      4.86       542     12.77